sensor_id;sensor_type;location;lat;lon;timestamp;temperature;humidity
11505;DHT22;5809;53.262;10.408;2023-03-14T00:04:54;11.80;1.00
11505;DHT22;5809;53.262;10.408;2023-03-14T00:12:18;11.80;1.00
11505;DHT22;5809;53.262;10.408;2023-03-14T00:24:34;11.90;1.00
11505;DHT22;5809;53.262;10.408;2023-03-14T00:27:03;11.90;1.00
11505;DHT22;5809;53.262;10.408;2023-03-14T00:31:57;11.90;1.00
11505;DHT22;5809;53.262;10.408;2023-03-14T00:36:55;11.80;63.90
11505;DHT22;5809;53.262;10.408;2023-03-14T00:41:49;11.50;99.90
11505;DHT22;5809;53.262;10.408;2023-03-14T00:49:12;10.80;99.90
11505;DHT22;5809;53.262;10.408;2023-03-14T00:51:39;10.70;99.90
11505;DHT22;5809;53.262;10.408;2023-03-14T00:56:34;10.50;99.90
11505;DHT22;5809;53.262;10.408;2023-03-14T01:01:29;10.50;99.90
11505;DHT22;5809;53.262;10.408;2023-03-14T01:26:09;10.60;99.90
11505;DHT22;5809;53.262;10.408;2023-03-14T01:28:37;10.60;99.90
11505;DHT22;5809;53.262;10.408;2023-03-14T01:31:04;10.60;99.90
11505;DHT22;5809;53.262;10.408;2023-03-14T01:36:00;10.60;99.90
11505;DHT22;5809;53.262;10.408;2023-03-14T01:40:55;10.60;99.90
11505;DHT22;5809;53.262;10.408;2023-03-14T01:51:08;10.60;99.90
11505;DHT22;5809;53.262;10.408;2023-03-14T01:53:37;10.70;99.90
11505;DHT22;5809;53.262;10.408;2023-03-14T01:58:33;10.60;99.90
11505;DHT22;5809;53.262;10.408;2023-03-14T02:01:02;10.60;99.90
11505;DHT22;5809;53.262;10.408;2023-03-14T02:03:31;10.60;99.90
11505;DHT22;5809;53.262;10.408;2023-03-14T02:08:33;10.40;99.90
11505;DHT22;5809;53.262;10.408;2023-03-14T02:13:29;10.30;99.90
11505;DHT22;5809;53.262;10.408;2023-03-14T02:15:56;10.30;99.90
11505;DHT22;5809;53.262;10.408;2023-03-14T02:20:55;10.20;99.90
11505;DHT22;5809;53.262;10.408;2023-03-14T02:23:31;10.10;99.90
11505;DHT22;5809;53.262;10.408;2023-03-14T02:26:07;10.10;99.90
11505;DHT22;5809;53.262;10.408;2023-03-14T02:31:04;10.00;99.90
11505;DHT22;5809;53.262;10.408;2023-03-14T02:33:31;10.00;99.90
11505;DHT22;5809;53.262;10.408;2023-03-14T02:45:52;9.70;99.90
11505;DHT22;5809;53.262;10.408;2023-03-14T02:50:49;9.80;99.90
11505;DHT22;5809;53.262;10.408;2023-03-14T03:00:40;9.90;99.90
11505;DHT22;5809;53.262;10.408;2023-03-14T03:03:09;10.00;99.90
11505;DHT22;5809;53.262;10.408;2023-03-14T03:10:31;10.00;99.90
11505;DHT22;5809;53.262;10.408;2023-03-14T03:15:26;10.10;99.90
11505;DHT22;5809;53.262;10.408;2023-03-14T03:17:53;10.20;99.90
11505;DHT22;5809;53.262;10.408;2023-03-14T03:27:43;10.30;99.90
11505;DHT22;5809;53.262;10.408;2023-03-14T03:32:38;10.40;99.90
11505;DHT22;5809;53.262;10.408;2023-03-14T03:35:06;10.30;99.90
11505;DHT22;5809;53.262;10.408;2023-03-14T03:42:32;10.40;99.90
11505;DHT22;5809;53.262;10.408;2023-03-14T03:45:00;10.50;99.90
11505;DHT22;5809;53.262;10.408;2023-03-14T03:54:50;10.80;99.90
11505;DHT22;5809;53.262;10.408;2023-03-14T03:57:16;10.80;99.90
11505;DHT22;5809;53.262;10.408;2023-03-14T04:04:38;10.80;99.90
11505;DHT22;5809;53.262;10.408;2023-03-14T04:12:01;10.60;99.90
11505;DHT22;5809;53.262;10.408;2023-03-14T04:24:16;10.60;99.90
11505;DHT22;5809;53.262;10.408;2023-03-14T04:26:43;10.60;99.90
11505;DHT22;5809;53.262;10.408;2023-03-14T04:31:39;10.60;99.90
11505;DHT22;5809;53.262;10.408;2023-03-14T04:36:33;10.70;99.90
11505;DHT22;5809;53.262;10.408;2023-03-14T04:46:23;10.80;99.90
11505;DHT22;5809;53.262;10.408;2023-03-14T04:48:50;10.80;99.90
11505;DHT22;5809;53.262;10.408;2023-03-14T04:53:44;10.90;99.90
11505;DHT22;5809;53.262;10.408;2023-03-14T04:58:38;10.90;99.90
11505;DHT22;5809;53.262;10.408;2023-03-14T05:01:06;11.00;99.90
11505;DHT22;5809;53.262;10.408;2023-03-14T05:03:34;11.00;99.90
11505;DHT22;5809;53.262;10.408;2023-03-14T05:06:04;8.70;99.90
11505;DHT22;5809;53.262;10.408;2023-03-14T05:10:58;11.10;99.90
11505;DHT22;5809;53.262;10.408;2023-03-14T05:15:52;11.00;99.90
11505;DHT22;5809;53.262;10.408;2023-03-14T05:18:20;11.10;99.90
11505;DHT22;5809;53.262;10.408;2023-03-14T05:20:50;11.10;99.90
11505;DHT22;5809;53.262;10.408;2023-03-14T05:45:23;10.70;99.90
11505;DHT22;5809;53.262;10.408;2023-03-14T05:50:17;10.50;99.90
11505;DHT22;5809;53.262;10.408;2023-03-14T05:55:13;10.40;99.90
11505;DHT22;5809;53.262;10.408;2023-03-14T06:07:29;10.40;99.90
11505;DHT22;5809;53.262;10.408;2023-03-14T06:12:25;10.40;99.90
11505;DHT22;5809;53.262;10.408;2023-03-14T06:14:52;10.40;99.90
11505;DHT22;5809;53.262;10.408;2023-03-14T06:19:46;10.50;99.90
11505;DHT22;5809;53.262;10.408;2023-03-14T06:32:04;10.40;99.90
11505;DHT22;5809;53.262;10.408;2023-03-14T06:36:58;10.40;99.90
11505;DHT22;5809;53.262;10.408;2023-03-14T06:39:25;10.30;99.90
11505;DHT22;5809;53.262;10.408;2023-03-14T06:56:37;10.20;99.90
11505;DHT22;5809;53.262;10.408;2023-03-14T07:06:29;10.10;99.90
11505;DHT22;5809;53.262;10.408;2023-03-14T07:18:45;9.90;99.90
11505;DHT22;5809;53.262;10.408;2023-03-14T07:28:35;9.40;99.90
11505;DHT22;5809;53.262;10.408;2023-03-14T07:33:29;9.40;99.90
11505;DHT22;5809;53.262;10.408;2023-03-14T07:45:52;9.70;99.90
11505;DHT22;5809;53.262;10.408;2023-03-14T07:50:48;9.90;99.90
11505;DHT22;5809;53.262;10.408;2023-03-14T07:55:44;10.10;99.90
11505;DHT22;5809;53.262;10.408;2023-03-14T08:00:39;10.40;99.90
11505;DHT22;5809;53.262;10.408;2023-03-14T08:03:06;10.50;99.90
11505;DHT22;5809;53.262;10.408;2023-03-14T08:05:34;10.70;99.90
11505;DHT22;5809;53.262;10.408;2023-03-14T08:20:22;11.60;99.90
11505;DHT22;5809;53.262;10.408;2023-03-14T08:22:49;11.70;1.00
11505;DHT22;5809;53.262;10.408;2023-03-14T08:27:43;12.00;1.00
11505;DHT22;5809;53.262;10.408;2023-03-14T08:30:14;11.80;69.50
11505;DHT22;5809;53.262;10.408;2023-03-14T08:37:35;11.80;99.90
11505;DHT22;5809;53.262;10.408;2023-03-14T08:40:03;11.80;99.90
11505;DHT22;5809;53.262;10.408;2023-03-14T08:42:32;11.90;99.90
11505;DHT22;5809;53.262;10.408;2023-03-14T08:47:27;12.10;99.90
11505;DHT22;5809;53.262;10.408;2023-03-14T08:49:54;12.30;99.90
11505;DHT22;5809;53.262;10.408;2023-03-14T08:52:21;12.70;99.90
11505;DHT22;5809;53.262;10.408;2023-03-14T08:54:48;12.70;99.90
11505;DHT22;5809;53.262;10.408;2023-03-14T08:57:15;13.40;99.90
11505;DHT22;5809;53.262;10.408;2023-03-14T08:59:43;13.80;99.90
11505;DHT22;5809;53.262;10.408;2023-03-14T09:07:07;14.60;99.90
11505;DHT22;5809;53.262;10.408;2023-03-14T09:12:01;14.50;99.90
11505;DHT22;5809;53.262;10.408;2023-03-14T09:16:55;13.40;99.90
11505;DHT22;5809;53.262;10.408;2023-03-14T09:19:22;13.00;99.90
11505;DHT22;5809;53.262;10.408;2023-03-14T09:21:50;12.90;99.90
11505;DHT22;5809;53.262;10.408;2023-03-14T09:24:18;12.80;99.90
11505;DHT22;5809;53.262;10.408;2023-03-14T09:26:45;12.60;99.90
11505;DHT22;5809;53.262;10.408;2023-03-14T09:31:39;12.50;99.90
11505;DHT22;5809;53.262;10.408;2023-03-14T09:36:33;12.40;99.90
11505;DHT22;5809;53.262;10.408;2023-03-14T09:39:01;12.50;99.90
11505;DHT22;5809;53.262;10.408;2023-03-14T09:41:33;12.50;99.90
11505;DHT22;5809;53.262;10.408;2023-03-14T09:46:31;12.70;99.90
11505;DHT22;5809;53.262;10.408;2023-03-14T09:48:59;12.70;99.90
11505;DHT22;5809;53.262;10.408;2023-03-14T09:51:27;12.70;99.90
11505;DHT22;5809;53.262;10.408;2023-03-14T10:03:54;13.00;99.90
11505;DHT22;5809;53.262;10.408;2023-03-14T10:06:24;13.10;99.90
11505;DHT22;5809;53.262;10.408;2023-03-14T10:08:54;13.20;99.90
11505;DHT22;5809;53.262;10.408;2023-03-14T10:11:24;13.20;99.90
11505;DHT22;5809;53.262;10.408;2023-03-14T10:14:03;13.30;99.90
11505;DHT22;5809;53.262;10.408;2023-03-14T10:21:30;12.70;99.90
11505;DHT22;5809;53.262;10.408;2023-03-14T10:26:36;12.20;99.90
11505;DHT22;5809;53.262;10.408;2023-03-14T10:29:09;12.00;99.90
11505;DHT22;5809;53.262;10.408;2023-03-14T10:31:47;11.70;99.90
11505;DHT22;5809;53.262;10.408;2023-03-14T10:41:55;9.90;99.90
11505;DHT22;5809;53.262;10.408;2023-03-14T10:46:58;9.80;99.90
11505;DHT22;5809;53.262;10.408;2023-03-14T10:49:27;9.70;99.90
11505;DHT22;5809;53.262;10.408;2023-03-14T10:56:58;9.00;99.90
11505;DHT22;5809;53.262;10.408;2023-03-14T10:59:29;8.40;99.90
11505;DHT22;5809;53.262;10.408;2023-03-14T11:02:01;8.10;99.90
11505;DHT22;5809;53.262;10.408;2023-03-14T11:04:46;7.70;99.90
11505;DHT22;5809;53.262;10.408;2023-03-14T11:07:24;7.50;99.90
11505;DHT22;5809;53.262;10.408;2023-03-14T11:09:58;7.30;99.90
11505;DHT22;5809;53.262;10.408;2023-03-14T11:12:38;7.20;99.90
11505;DHT22;5809;53.262;10.408;2023-03-14T11:15:14;7.10;99.90
11505;DHT22;5809;53.262;10.408;2023-03-14T11:17:53;7.00;99.90
11505;DHT22;5809;53.262;10.408;2023-03-14T12:19:33;4.80;99.90
11505;DHT22;5809;53.262;10.408;2023-03-14T12:27:40;4.50;99.90
11505;DHT22;5809;53.262;10.408;2023-03-14T12:35:41;4.10;99.90
11505;DHT22;5809;53.262;10.408;2023-03-14T12:43:25;4.00;99.90
11505;DHT22;5809;53.262;10.408;2023-03-14T12:56:22;4.20;99.90
11505;DHT22;5809;53.262;10.408;2023-03-14T13:01:29;4.20;99.90
11505;DHT22;5809;53.262;10.408;2023-03-14T15:59:36;5.60;99.90
11505;DHT22;5809;53.262;10.408;2023-03-14T16:11:53;5.70;99.90
11505;DHT22;5809;53.262;10.408;2023-03-14T16:19:16;5.60;99.90
11505;DHT22;5809;53.262;10.408;2023-03-14T16:43:57;5.00;99.90
11505;DHT22;5809;53.262;10.408;2023-03-14T16:46:25;5.10;99.90
11505;DHT22;5809;53.262;10.408;2023-03-14T16:51:20;5.00;99.90
11505;DHT22;5809;53.262;10.408;2023-03-14T17:03:41;4.90;99.90
11505;DHT22;5809;53.262;10.408;2023-03-14T19:43:51;2.60;99.90
11505;DHT22;5809;53.262;10.408;2023-03-14T19:51:15;2.60;99.90
11505;DHT22;5809;53.262;10.408;2023-03-14T22:58:39;1.10;99.90
11505;DHT22;5809;53.262;10.408;2023-03-14T23:03:33;0.90;99.90
11505;DHT22;5809;53.262;10.408;2023-03-14T23:06:03;0.90;99.90
11505;DHT22;5809;53.262;10.408;2023-03-14T23:08:30;1.00;99.90
11505;DHT22;5809;53.262;10.408;2023-03-14T23:11:01;0.90;99.90
11505;DHT22;5809;53.262;10.408;2023-03-14T23:13:28;0.90;99.90
11505;DHT22;5809;53.262;10.408;2023-03-14T23:15:56;0.80;99.90
11505;DHT22;5809;53.262;10.408;2023-03-14T23:18:23;0.80;99.90
11505;DHT22;5809;53.262;10.408;2023-03-14T23:20:52;0.80;99.90
11505;DHT22;5809;53.262;10.408;2023-03-14T23:23:20;0.90;99.90
11505;DHT22;5809;53.262;10.408;2023-03-14T23:25:50;0.90;99.90
11505;DHT22;5809;53.262;10.408;2023-03-14T23:28:17;0.80;99.90
11505;DHT22;5809;53.262;10.408;2023-03-14T23:30:52;0.80;99.90
11505;DHT22;5809;53.262;10.408;2023-03-14T23:33:20;0.80;99.90
11505;DHT22;5809;53.262;10.408;2023-03-14T23:35:47;0.80;99.90
11505;DHT22;5809;53.262;10.408;2023-03-14T23:38:13;0.80;99.90
11505;DHT22;5809;53.262;10.408;2023-03-14T23:40:42;0.80;99.90
11505;DHT22;5809;53.262;10.408;2023-03-14T23:43:09;0.80;99.90
11505;DHT22;5809;53.262;10.408;2023-03-14T23:45:36;0.70;99.90
11505;DHT22;5809;53.262;10.408;2023-03-14T23:48:04;0.80;99.90
11505;DHT22;5809;53.262;10.408;2023-03-14T23:52:58;0.70;99.90
11505;DHT22;5809;53.262;10.408;2023-03-14T23:57:53;0.70;99.90
